Time;durP1;ratioP1;P1;durP2;ratioP2;P2;SDS_P1;SDS_P2;PMS_P1;PMS_P2;Temp;Humidity;BMP_temperature;BMP_pressure;BME280_temperature;BME280_humidity;BME280_pressure;Samples;Min_cycle;Max_cycle;Signal;HPM_P1;HPM_P2
2023/07/24 00:01:12;;;;;;;10.30;4.60;;;;;;;16.82;68.54;99295.48;107382;1253;60332;-39
2023/07/24 00:03:40;;;;;;;4.80;4.30;;;;;;;16.85;68.48;99291.00;107430;1253;73916;-39
2023/07/24 00:06:07;;;;;;;9.10;4.80;;;;;;;16.86;68.47;99289.81;107450;1253;67704;-39
2023/07/24 00:08:35;;;;;;;6.50;4.60;;;;;;;16.85;68.59;99284.59;107380;1253;71087;-39
2023/07/24 00:11:04;;;;;;;9.80;5.10;;;;;;;16.84;68.64;99279.12;107324;1254;60355;-39
2023/07/24 00:13:31;;;;;;;11.90;4.70;;;;;;;16.82;68.63;99275.38;107473;1253;60355;-39
2023/07/24 00:15:59;;;;;;;11.20;5.20;;;;;;;16.80;68.67;99276.95;107484;1254;73850;-39
2023/07/24 00:18:26;;;;;;;7.20;4.50;;;;;;;16.80;68.59;99277.73;107464;1254;65942;-39
2023/07/24 00:20:54;;;;;;;7.40;4.90;;;;;;;16.83;68.40;99277.79;107485;1253;73125;-39
2023/07/24 00:23:21;;;;;;;7.10;4.80;;;;;;;16.82;68.34;99275.54;107420;1254;61002;-39
2023/07/24 00:25:49;;;;;;;6.30;4.40;;;;;;;16.80;68.38;99274.77;107500;1255;60336;-39
2023/07/24 00:28:16;;;;;;;11.10;4.40;;;;;;;16.76;68.51;99267.28;107463;1254;72586;-39
2023/07/24 00:30:44;;;;;;;5.10;4.60;;;;;;;16.74;68.74;99265.59;107402;1254;66990;-39
2023/07/24 00:33:12;;;;;;;5.60;4.30;;;;;;;16.72;68.69;99264.97;107466;1254;72747;-39
2023/07/24 00:35:39;;;;;;;6.30;4.80;;;;;;;16.73;68.70;99263.33;107468;1254;60637;-39
2023/07/24 00:38:07;;;;;;;12.80;4.30;;;;;;;16.76;68.79;99257.05;107487;1258;60309;-39
2023/07/24 00:40:35;;;;;;;8.40;4.60;;;;;;;16.77;68.94;99262.20;107474;1254;73177;-39
2023/07/24 00:43:02;;;;;;;6.30;4.60;;;;;;;16.75;69.19;99261.27;107459;1258;67724;-39
2023/07/24 00:45:30;;;;;;;8.50;4.70;;;;;;;16.74;69.12;99262.94;107432;1254;71391;-39
2023/07/24 00:47:59;;;;;;;6.60;4.50;;;;;;;16.71;69.14;99264.11;107469;1254;60329;-39
2023/07/24 00:50:27;;;;;;;8.10;4.70;;;;;;;16.67;69.01;99258.91;107472;1254;61244;-39
2023/07/24 00:52:54;;;;;;;7.90;4.20;;;;;;;16.64;69.07;99257.84;107496;1254;72550;-39
2023/07/24 00:55:22;;;;;;;4.30;3.80;;;;;;;16.67;68.99;99253.04;107468;1254;67901;-39
2023/07/24 00:57:49;;;;;;;6.00;4.00;;;;;;;16.68;69.16;99252.88;107398;1259;72721;-39
2023/07/24 01:00:17;;;;;;;6.30;4.20;;;;;;;16.67;69.02;99253.67;107497;1254;60310;-39
2023/07/24 01:02:46;;;;;;;7.70;4.00;;;;;;;16.64;68.90;99251.36;107473;1253;59219;-39
2023/07/24 01:05:15;;;;;;;7.20;4.30;;;;;;;16.60;68.89;99250.83;107288;1260;73922;-39
2023/07/24 01:07:42;;;;;;;6.60;4.30;;;;;;;16.57;68.92;99249.56;107482;1253;67652;-39
2023/07/24 01:10:10;;;;;;;10.20;4.90;;;;;;;16.51;69.15;99247.73;107482;1254;71712;-39
2023/07/24 01:12:41;;;;;;;6.40;4.00;;;;;;;16.51;69.24;99249.30;107536;1256;60431;-39
2023/07/24 01:15:32;;;;;;;8.90;4.40;;;;;;;16.55;69.31;99246.61;107498;1254;60533;-39
2023/07/24 01:18:01;;;;;;;6.60;4.40;;;;;;;16.55;69.23;99248.02;107400;1259;73907;-39
2023/07/24 01:20:29;;;;;;;6.50;4.20;;;;;;;16.50;69.48;99248.83;107488;1254;67527;-39
2023/07/24 01:23:35;;;;;;;6.20;4.30;;;;;;;16.47;69.42;99252.28;107309;1252;72756;-39
2023/07/24 01:26:04;;;;;;;5.90;4.40;;;;;;;16.39;69.56;99254.55;107519;1254;59553;-39
2023/07/24 01:28:32;;;;;;;9.10;4.30;;;;;;;16.32;69.87;99256.37;107292;1254;60290;-39
2023/07/24 01:31:00;;;;;;;9.40;4.00;;;;;;;16.33;69.84;99252.77;107514;1253;72542;-39
2023/07/24 01:33:28;;;;;;;6.30;4.20;;;;;;;16.38;69.78;99256.34;107468;1259;66664;-39
2023/07/24 01:35:57;;;;;;;7.40;4.70;;;;;;;16.40;69.70;99256.73;107532;1254;72749;-39
2023/07/24 01:38:25;;;;;;;8.60;4.70;;;;;;;16.38;69.52;99257.59;107519;1254;60447;-39
2023/07/24 01:40:56;;;;;;;7.00;4.40;;;;;;;16.37;69.63;99259.71;107184;1254;59389;-39
2023/07/24 01:43:26;;;;;;;5.80;4.40;;;;;;;16.37;69.64;99258.15;107489;1254;73848;-39
2023/07/24 01:45:54;;;;;;;10.80;4.90;;;;;;;16.36;69.49;99259.26;107481;1254;66613;-39
2023/07/24 01:48:22;;;;;;;8.70;4.70;;;;;;;16.36;69.42;99264.19;107514;1253;72660;-39
2023/07/24 01:50:50;;;;;;;8.10;4.90;;;;;;;16.38;69.29;99262.37;107516;1256;60345;-39
2023/07/24 01:53:17;;;;;;;7.00;4.80;;;;;;;16.38;69.24;99259.08;107471;1254;60289;-39
2023/07/24 01:55:45;;;;;;;8.90;6.20;;;;;;;16.37;69.22;99260.81;107418;1254;74003;-39
2023/07/24 01:58:12;;;;;;;10.60;6.60;;;;;;;16.34;69.27;99264.11;107313;1254;66553;-39
2023/07/24 02:00:40;;;;;;;8.90;6.50;;;;;;;16.31;69.28;99266.94;107420;1257;71419;-39
2023/07/24 02:03:07;;;;;;;9.70;6.80;;;;;;;16.30;69.11;99267.58;107432;1253;61253;-39
2023/07/24 02:05:35;;;;;;;11.20;6.80;;;;;;;16.30;69.11;99264.69;107457;1253;60414;-39
2023/07/24 02:08:04;;;;;;;11.60;7.50;;;;;;;16.31;69.14;99262.72;107264;1254;71991;-39
2023/07/24 02:10:31;;;;;;;10.70;7.40;;;;;;;16.29;69.21;99269.13;107567;1258;67596;-39
2023/07/24 02:12:59;;;;;;;11.50;7.40;;;;;;;16.26;69.38;99270.41;107413;1254;71413;-39
2023/07/24 02:15:27;;;;;;;10.60;7.40;;;;;;;16.22;69.47;99271.75;107474;1254;60417;-39
2023/07/24 02:17:55;;;;;;;12.50;7.80;;;;;;;16.19;69.67;99276.45;107567;1254;59670;-39
2023/07/24 02:21:08;;;;;;;10.40;7.60;;;;;;;16.21;69.58;99274.18;103810;1294;601299;-39
2023/07/24 02:23:35;;;;;;;11.80;7.80;;;;;;;16.21;69.31;99277.61;106397;1268;60384;-39
2023/07/24 02:26:04;;;;;;;12.00;7.40;;;;;;;16.21;69.30;99273.70;106505;1273;59319;-38
2023/07/24 02:28:34;;;;;;;11.20;7.30;;;;;;;16.21;69.47;99270.12;106489;1271;71003;-39
2023/07/24 02:31:01;;;;;;;11.60;7.60;;;;;;;16.21;69.61;99267.77;106485;1268;67959;-39
2023/07/24 02:33:29;;;;;;;12.20;8.60;;;;;;;16.23;69.53;99265.11;106481;1269;72738;-39
2023/07/24 02:35:57;;;;;;;11.80;7.70;;;;;;;16.25;69.26;99263.84;106386;1268;157882;-39
2023/07/24 02:38:24;;;;;;;11.60;7.70;;;;;;;16.24;69.33;99261.11;106645;1267;59253;-39
2023/07/24 02:40:52;;;;;;;11.20;7.60;;;;;;;16.28;69.15;99258.75;106599;1267;71028;-39
2023/07/24 02:43:19;;;;;;;10.10;7.20;;;;;;;16.35;69.19;99254.71;106580;1268;67483;-39
2023/07/24 02:45:47;;;;;;;9.90;7.10;;;;;;;16.39;69.29;99253.52;106563;1273;71445;-39
2023/07/24 02:48:16;;;;;;;15.70;8.10;;;;;;;16.40;69.23;99255.07;106652;1269;59473;-39
2023/07/24 02:50:43;;;;;;;11.00;7.30;;;;;;;16.42;69.05;99256.70;106703;1268;59584;-39
2023/07/24 02:53:11;;;;;;;10.90;6.70;;;;;;;16.42;68.85;99256.16;106559;1267;73136;-39
2023/07/24 02:55:43;;;;;;;10.10;6.20;;;;;;;16.39;68.70;99258.45;106608;1265;67592;-39
2023/07/24 02:58:12;;;;;;;8.90;6.00;;;;;;;16.39;68.74;99257.90;106695;1271;72719;-39
2023/07/24 03:00:40;;;;;;;11.70;6.00;;;;;;;16.43;68.82;99257.41;106757;1267;60511;-39
2023/07/24 03:03:07;;;;;;;11.10;6.00;;;;;;;16.44;68.77;99254.98;106705;1269;59594;-39
2023/07/24 03:05:35;;;;;;;9.60;6.10;;;;;;;16.41;68.75;99257.48;106541;1269;73091;-39
2023/07/24 03:08:03;;;;;;;7.60;6.10;;;;;;;16.41;68.81;99260.55;106594;1271;67915;-39
2023/07/24 03:10:31;;;;;;;9.80;6.00;;;;;;;16.37;68.83;99255.79;106672;1271;72690;-40
2023/07/24 03:12:58;;;;;;;8.90;6.20;;;;;;;16.33;69.12;99255.90;106608;1268;61726;-39
2023/07/24 03:15:26;;;;;;;9.10;5.20;;;;;;;16.34;69.31;99262.71;106519;1266;59648;-39
2023/07/24 03:17:54;;;;;;;6.90;5.40;;;;;;;16.37;69.30;99264.09;106618;1267;72072;-39
2023/07/24 03:20:22;;;;;;;7.30;5.50;;;;;;;16.38;69.55;99262.13;106542;1271;67650;-39
2023/07/24 03:22:49;;;;;;;9.30;5.30;;;;;;;16.36;69.69;99262.06;106485;1269;71398;-39
2023/07/24 03:25:17;;;;;;;7.80;5.80;;;;;;;16.36;69.89;99258.23;106564;1271;60183;-40
2023/07/24 03:27:45;;;;;;;7.70;5.20;;;;;;;16.39;70.11;99263.21;106602;1268;60056;-39
2023/07/24 03:30:13;;;;;;;6.80;4.70;;;;;;;16.45;70.25;99263.09;106495;1271;73090;-39
2023/07/24 03:32:40;;;;;;;6.30;4.90;;;;;;;16.55;70.45;99265.23;106550;1267;68362;-39
2023/07/24 03:35:08;;;;;;;6.50;5.30;;;;;;;16.62;70.52;99263.02;106578;1271;72673;-39
2023/07/24 03:37:35;;;;;;;6.70;5.30;;;;;;;16.66;70.68;99265.72;106574;1269;60165;-40
2023/07/24 03:40:04;;;;;;;6.90;5.40;;;;;;;16.73;70.86;99267.01;106631;1268;59353;-39
2023/07/24 03:42:32;;;;;;;6.00;5.10;;;;;;;16.79;70.99;99264.13;106656;1267;71966;-39
2023/07/24 03:44:59;;;;;;;6.90;4.50;;;;;;;16.87;70.99;99264.45;106545;1269;66412;-39
2023/07/24 03:47:27;;;;;;;7.00;5.30;;;;;;;17.00;70.87;99259.11;106569;1267;72771;-39
2023/07/24 03:49:55;;;;;;;7.70;5.30;;;;;;;17.08;70.47;99252.15;106606;1268;60093;-40
2023/07/24 03:52:22;;;;;;;6.10;5.40;;;;;;;17.09;70.57;99250.20;106619;1267;60004;-39
2023/07/24 03:54:51;;;;;;;10.00;5.30;;;;;;;17.12;70.43;99247.89;106624;1267;73052;-39
2023/07/24 03:57:19;;;;;;;8.10;4.80;;;;;;;17.12;70.40;99249.15;106689;1267;67061;-40
2023/07/24 03:59:46;;;;;;;6.30;5.40;;;;;;;17.10;70.39;99244.31;106573;1267;72719;-39
2023/07/24 04:02:14;;;;;;;5.60;5.00;;;;;;;17.12;70.36;99238.34;106520;1268;60133;-39
2023/07/24 04:04:41;;;;;;;6.10;5.50;;;;;;;17.12;70.44;99239.44;106488;1271;59631;-39
2023/07/24 04:07:09;;;;;;;5.90;5.10;;;;;;;17.12;70.39;99235.38;106559;1268;73056;-40
2023/07/24 04:09:36;;;;;;;7.60;5.40;;;;;;;17.09;70.40;99236.66;106535;1269;67565;-39
2023/07/24 04:12:05;;;;;;;7.00;5.50;;;;;;;17.10;70.66;99235.08;106541;1267;72668;-40
2023/07/24 04:14:32;;;;;;;7.20;5.40;;;;;;;17.19;70.25;99231.78;106694;1268;60608;-39
2023/07/24 04:17:00;;;;;;;6.10;5.50;;;;;;;17.25;69.91;99229.77;106725;1268;59541;-40
2023/07/24 04:19:28;;;;;;;8.30;5.80;;;;;;;17.28;70.12;99235.99;106693;1270;73144;-40
2023/07/24 04:21:55;;;;;;;9.80;5.60;;;;;;;17.32;70.05;99234.23;106602;1271;68042;-40
2023/07/24 04:24:23;;;;;;;9.20;6.00;;;;;;;17.37;69.93;99228.85;106556;1271;72517;-40
2023/07/24 04:26:50;;;;;;;7.20;5.80;;;;;;;17.46;69.54;99227.13;106637;1268;61729;-40
2023/07/24 04:29:18;;;;;;;8.30;5.70;;;;;;;17.55;69.22;99226.06;106610;1268;59494;-40
2023/07/24 04:31:45;;;;;;;6.40;5.20;;;;;;;17.66;69.02;99216.48;106563;1270;71875;-40
2023/07/24 04:34:13;;;;;;;8.00;6.30;;;;;;;17.78;68.92;99217.59;106549;1269;66770;-40
2023/07/24 04:36:40;;;;;;;8.10;5.80;;;;;;;17.88;68.65;99217.09;106613;1269;73242;-40
2023/07/24 04:39:08;;;;;;;9.60;6.60;;;;;;;17.94;67.94;99217.86;106626;1268;59610;-40
2023/07/24 04:41:35;;;;;;;7.60;5.90;;;;;;;18.03;68.23;99215.33;106597;1270;60078;-40
2023/07/24 04:46:19;;;;;;;6.60;5.80;;;;;;;18.26;67.54;99218.29;104014;1291;601049;-38
2023/07/24 04:48:46;;;;;;;7.70;5.50;;;;;;;18.34;67.42;99217.06;106595;1265;59212;-38
2023/07/24 04:51:14;;;;;;;11.10;6.40;;;;;;;18.42;67.39;99211.54;106532;1266;60048;-38
2023/07/24 04:53:41;;;;;;;10.00;6.70;;;;;;;18.49;67.42;99215.81;106511;1269;72242;-38
2023/07/24 04:56:10;;;;;;;8.70;6.40;;;;;;;18.56;67.51;99212.90;106562;1266;67853;-38
2023/07/24 04:58:38;;;;;;;6.90;5.90;;;;;;;18.67;67.38;99209.92;106546;1266;72714;-38
2023/07/24 05:01:05;;;;;;;7.40;5.90;;;;;;;18.80;67.06;99208.37;106517;1263;157537;-38
2023/07/24 05:03:33;;;;;;;6.70;6.00;;;;;;;18.88;66.92;99202.98;106591;1264;59236;-38
2023/07/24 05:06:00;;;;;;;10.90;6.50;;;;;;;18.95;66.78;99199.31;106633;1264;70734;-38
2023/07/24 05:08:28;;;;;;;8.00;6.40;;;;;;;19.04;66.06;99193.36;106589;1266;68031;-38
2023/07/24 05:10:56;;;;;;;8.60;6.20;;;;;;;19.09;65.87;99190.67;106625;1265;72737;-38
2023/07/24 05:13:24;;;;;;;7.10;6.40;;;;;;;19.14;65.06;99194.42;106623;1266;60077;-38
2023/07/24 05:15:52;;;;;;;7.70;5.50;;;;;;;19.18;65.18;99192.16;106686;1266;59633;-38
2023/07/24 05:18:20;;;;;;;6.50;5.50;;;;;;;19.27;65.39;99191.43;106707;1266;73066;-38
2023/07/24 05:20:48;;;;;;;7.20;5.30;;;;;;;19.41;65.06;99194.93;106709;1264;66645;-38
2023/07/24 05:23:16;;;;;;;6.60;5.90;;;;;;;19.54;64.58;99191.81;106751;1264;72679;-38
2023/07/24 05:25:43;;;;;;;6.20;5.50;;;;;;;19.63;64.25;99189.10;106679;1264;60087;-38
2023/07/24 05:28:11;;;;;;;6.50;5.70;;;;;;;19.73;63.97;99187.16;106715;1265;60070;-39
2023/07/24 05:30:38;;;;;;;7.10;5.40;;;;;;;19.81;63.36;99182.90;106579;1266;73000;-38
2023/07/24 05:33:06;;;;;;;8.60;5.50;;;;;;;19.88;63.15;99181.03;106876;1263;67609;-38
2023/07/24 05:35:34;;;;;;;6.20;5.60;;;;;;;19.95;62.89;99183.00;106927;1261;72676;-38
2023/07/24 05:38:02;;;;;;;5.40;4.70;;;;;;;20.01;62.55;99183.02;106797;1262;61727;-38
2023/07/24 05:40:30;;;;;;;7.90;5.10;;;;;;;20.11;62.39;99185.25;106979;1259;59676;-38
2023/07/24 05:42:57;;;;;;;6.30;5.30;;;;;;;20.21;61.83;99183.49;107022;1261;73111;-38
2023/07/24 05:45:24;;;;;;;5.50;4.50;;;;;;;20.31;61.67;99192.42;106982;1262;66635;-38
2023/07/24 05:47:52;;;;;;;6.40;4.90;;;;;;;20.39;61.35;99190.85;106863;1261;72708;-38
2023/07/24 05:50:20;;;;;;;5.10;4.60;;;;;;;20.46;61.14;99186.73;106992;1263;59466;-39
2023/07/24 05:52:47;;;;;;;7.80;4.90;;;;;;;20.53;60.77;99187.52;106926;1264;59663;-38
2023/07/24 05:55:15;;;;;;;5.80;4.60;;;;;;;20.58;60.13;99184.17;106986;1263;71599;-41
2023/07/24 05:57:43;;;;;;;8.50;4.90;;;;;;;20.59;60.60;99180.29;106985;1263;66299;-39
2023/07/24 06:00:11;;;;;;;6.60;5.50;;;;;;;20.62;60.54;99177.38;106759;1262;72771;-39
2023/07/24 06:02:38;;;;;;;7.70;5.00;;;;;;;20.66;61.16;99176.41;106834;1263;60736;-40
2023/07/24 06:05:07;;;;;;;9.50;5.20;;;;;;;20.74;61.56;99173.13;106814;1260;59998;-39
2023/07/24 06:07:34;;;;;;;7.30;4.60;;;;;;;20.86;61.16;99172.35;106806;1263;71060;-38
2023/07/24 06:10:03;;;;;;;7.50;4.90;;;;;;;20.97;60.64;99165.31;106885;1262;66442;-39
2023/07/24 06:12:31;;;;;;;6.10;4.60;;;;;;;21.07;60.68;99161.80;106839;1263;71391;-39
2023/07/24 06:14:58;;;;;;;7.10;5.00;;;;;;;21.17;60.22;99157.92;106836;1262;59680;-39
2023/07/24 06:17:27;;;;;;;8.40;4.90;;;;;;;21.27;60.04;99156.95;106780;1263;60010;-41
2023/07/24 06:20:04;;;;;;;5.40;4.70;;;;;;;21.38;59.92;99155.48;106758;1269;72114;-40
2023/07/24 06:22:31;;;;;;;6.90;4.90;;;;;;;21.44;59.64;99149.77;106790;1261;68072;-39
2023/07/24 06:25:04;;;;;;;5.90;4.90;;;;;;;21.52;59.48;99155.29;106992;1263;71445;-38
2023/07/24 06:27:34;;;;;;;6.90;4.90;;;;;;;21.61;59.50;99152.27;106800;1262;59594;-39
2023/07/24 06:30:03;;;;;;;5.40;4.80;;;;;;;21.71;59.10;99151.05;106911;1261;59619;-40
2023/07/24 06:32:43;;;;;;;;;;;;;;;21.80;58.04;99144.92;106981;1260;73517;-40
2023/07/24 06:35:11;;;;;;;7.90;4.60;;;;;;;21.84;57.84;99145.36;106838;1263;67791;-40
2023/07/24 06:37:38;;;;;;;7.00;4.40;;;;;;;21.90;58.33;99139.91;106959;1264;72557;-40
2023/07/24 06:40:10;;;;;;;10.10;5.20;;;;;;;22.03;58.59;99139.38;106913;1263;59858;-47
2023/07/24 06:42:38;;;;;;;5.20;4.40;;;;;;;22.14;57.29;99140.77;106832;1260;60089;-38
2023/07/24 06:45:07;;;;;;;7.10;4.80;;;;;;;22.22;57.11;99136.41;106915;1261;73505;-39
2023/07/24 06:47:37;;;;;;;9.00;4.30;;;;;;;22.31;57.43;99137.00;106873;1261;67783;-40
2023/07/24 06:50:09;;;;;;;7.40;4.50;;;;;;;22.41;57.42;99136.28;106617;1261;72779;-39
2023/07/24 06:52:37;;;;;;;5.40;4.60;;;;;;;22.50;57.65;99134.54;106753;1266;59609;-39
2023/07/24 06:55:05;;;;;;;5.70;4.50;;;;;;;22.61;55.47;99135.35;106784;1263;60217;-39
2023/07/24 06:57:33;;;;;;;6.50;4.40;;;;;;;22.72;54.47;99136.59;106818;1262;72891;-39
2023/07/24 07:00:00;;;;;;;6.40;4.60;;;;;;;22.82;54.90;99136.56;106802;1260;66444;-39
2023/07/24 07:02:28;;;;;;;4.70;4.10;;;;;;;22.92;54.40;99136.77;106817;1261;72727;-39
2023/07/24 07:04:56;;;;;;;5.00;4.40;;;;;;;23.02;53.74;99133.04;106843;1263;60066;-39
2023/07/24 07:07:23;;;;;;;7.30;4.40;;;;;;;23.11;52.67;99133.20;106868;1265;61027;-39
2023/07/24 07:09:51;;;;;;;6.10;4.50;;;;;;;23.18;52.55;99130.25;106817;1265;71758;-39
2023/07/24 07:12:18;;;;;;;6.70;4.50;;;;;;;23.24;52.85;99130.57;106887;1262;66429;-39
2023/07/24 07:14:48;;;;;;;9.30;4.50;;;;;;;23.33;52.92;99133.27;106782;1261;73153;-39
2023/07/24 07:17:16;;;;;;;6.40;4.90;;;;;;;23.42;53.02;99131.29;106930;1263;59590;-39
2023/07/24 07:19:44;;;;;;;8.30;5.10;;;;;;;23.50;52.31;99134.79;106781;1260;60795;-39
2023/07/24 07:22:12;;;;;;;7.10;5.40;;;;;;;23.57;52.79;99133.81;106937;1262;73038;-39
2023/07/24 07:24:39;;;;;;;5.30;4.80;;;;;;;23.64;52.27;99133.41;106969;1266;67619;-39
2023/07/24 07:27:07;;;;;;;5.40;4.90;;;;;;;23.68;52.22;99126.91;106876;1262;72692;-39
2023/07/24 07:29:34;;;;;;;7.60;4.70;;;;;;;23.73;52.53;99122.13;106833;1263;60049;-39
2023/07/24 07:32:02;;;;;;;5.90;4.50;;;;;;;23.78;52.78;99118.92;106641;1263;60105;-39
2023/07/24 07:34:30;;;;;;;5.80;4.80;;;;;;;23.85;53.20;99114.00;106739;1261;73107;-39
2023/07/24 07:36:57;;;;;;;6.60;4.90;;;;;;;23.93;53.44;99110.20;106748;1261;68483;-39
2023/07/24 07:39:25;;;;;;;5.20;4.60;;;;;;;24.03;53.81;99112.16;106847;1263;71867;-39
2023/07/24 07:41:52;;;;;;;6.10;4.40;;;;;;;24.12;52.90;99112.60;106800;1261;59699;-39
2023/07/24 07:44:40;;;;;;;5.90;4.40;;;;;;;24.21;52.18;99110.13;106960;1263;59759;-39
2023/07/24 07:47:07;;;;;;;7.30;4.40;;;;;;;24.28;52.16;99109.87;106933;1264;73083;-39
2023/07/24 07:49:35;;;;;;;5.00;4.50;;;;;;;24.35;52.08;99108.38;106913;1265;68579;-39
2023/07/24 07:52:04;;;;;;;7.20;4.70;;;;;;;24.44;52.14;99110.00;106763;1263;71658;-39
2023/07/24 07:54:31;;;;;;;5.30;4.70;;;;;;;24.55;51.98;99107.64;106829;1262;59234;-39
2023/07/24 07:57:04;;;;;;;5.00;4.40;;;;;;;24.66;51.50;99111.20;106961;1261;59743;-38
2023/07/24 07:59:34;;;;;;;8.20;4.80;;;;;;;24.75;50.70;99111.86;106916;1262;73229;-40
2023/07/24 08:02:04;;;;;;;5.50;4.80;;;;;;;24.80;49.59;99104.13;106925;1263;66614;-39
2023/07/24 08:04:32;;;;;;;5.30;4.20;;;;;;;24.83;49.34;99100.42;106858;1262;72785;-39
2023/07/24 08:06:59;;;;;;;5.40;4.50;;;;;;;24.86;50.29;99101.73;106785;1262;60335;-39
2023/07/24 08:09:27;;;;;;;5.10;4.50;;;;;;;24.89;50.18;99107.85;106885;1261;59468;-39
2023/07/24 08:11:54;;;;;;;5.60;4.00;;;;;;;24.91;49.78;99100.89;106728;1263;73195;-39
2023/07/24 08:14:22;;;;;;;6.30;4.60;;;;;;;24.94;50.07;99105.11;106809;1263;66283;-39
2023/07/24 08:16:49;;;;;;;5.60;4.50;;;;;;;24.99;50.23;99104.98;106755;1263;72742;-39
2023/07/24 08:19:17;;;;;;;5.10;4.40;;;;;;;25.06;49.84;99102.45;106907;1261;60186;-39
2023/07/24 08:21:46;;;;;;;6.30;4.60;;;;;;;25.13;50.35;99098.95;106723;1264;59538;-39
2023/07/24 08:24:13;;;;;;;8.00;4.30;;;;;;;25.21;49.71;99099.07;106721;1262;71811;-39
2023/07/24 08:26:41;;;;;;;6.70;4.60;;;;;;;25.32;50.41;99098.59;106936;1263;67689;-39
2023/07/24 08:29:09;;;;;;;6.00;4.50;;;;;;;25.42;49.77;99092.80;106728;1263;72711;-38
2023/07/24 08:31:36;;;;;;;7.20;4.80;;;;;;;25.52;49.48;99093.86;106764;1261;59737;-39
2023/07/24 08:34:04;;;;;;;7.40;4.80;;;;;;;25.62;49.17;99092.81;106713;1265;59519;-39
2023/07/24 08:36:32;;;;;;;5.20;4.60;;;;;;;25.69;48.43;99091.88;106655;1262;73495;-39
2023/07/24 08:38:59;;;;;;;5.10;4.60;;;;;;;25.75;48.18;99093.04;106688;1262;66355;-39
2023/07/24 08:41:27;;;;;;;4.60;4.20;;;;;;;25.84;48.15;99088.98;106764;1265;71508;-39
2023/07/24 08:43:54;;;;;;;6.80;5.10;;;;;;;25.89;47.17;99084.44;106789;1265;60080;-40
2023/07/24 08:46:22;;;;;;;5.50;4.30;;;;;;;25.92;47.89;99085.72;106972;1263;60016;-39
2023/07/24 08:48:49;;;;;;;4.90;4.30;;;;;;;25.97;48.15;99085.11;106781;1261;71813;-39
2023/07/24 08:51:18;;;;;;;5.30;4.20;;;;;;;26.06;48.63;99084.91;106776;1261;66567;-38
2023/07/24 08:53:46;;;;;;;6.50;4.70;;;;;;;26.18;48.00;99084.88;106809;1265;72677;-39
2023/07/24 08:56:14;;;;;;;7.60;4.50;;;;;;;26.28;47.19;99087.01;106850;1261;60508;-39
2023/07/24 08:58:42;;;;;;;7.60;4.30;;;;;;;26.36;46.68;99086.12;106955;1262;62296;-39
2023/07/24 09:01:10;;;;;;;8.00;4.60;;;;;;;26.44;46.00;99083.14;106777;1261;73850;-39
2023/07/24 09:03:37;;;;;;;4.60;4.00;;;;;;;26.47;45.73;99080.98;106928;1263;68058;-39
2023/07/24 09:06:07;;;;;;;6.40;4.60;;;;;;;26.50;45.67;99075.38;106856;1262;72518;-39
2023/07/24 09:08:40;;;;;;;8.40;4.60;;;;;;;26.53;45.96;99077.73;106849;1263;60407;-38
2023/07/24 09:11:08;;;;;;;5.50;4.20;;;;;;;26.57;45.73;99070.30;107050;1265;59308;-38
2023/07/24 09:13:37;;;;;;;6.60;4.30;;;;;;;26.62;46.45;99068.29;106865;1263;73855;-38
2023/07/24 09:16:05;;;;;;;6.90;4.60;;;;;;;26.69;46.40;99070.56;106918;1263;67617;-38
2023/07/24 09:18:40;;;;;;;7.00;4.60;;;;;;;26.76;44.85;99068.46;106830;1265;72690;-38
2023/07/24 09:21:09;;;;;;;4.90;4.40;;;;;;;26.82;44.83;99067.98;106890;1262;60303;-38
2023/07/24 09:23:40;;;;;;;5.30;4.50;;;;;;;26.87;45.24;99060.60;106873;1266;60795;-39
2023/07/24 09:26:08;;;;;;;8.20;4.60;;;;;;;26.92;45.94;99059.11;106832;1263;72670;-39
2023/07/24 09:28:36;;;;;;;11.60;5.30;;;;;;;27.00;45.89;99059.81;106822;1265;66414;-39
2023/07/24 09:31:04;;;;;;;10.40;4.20;;;;;;;27.07;45.94;99054.13;106842;1263;71463;-39
2023/07/24 09:33:39;;;;;;;4.90;4.10;;;;;;;27.13;45.26;99053.02;106806;1261;60552;-39
2023/07/24 09:36:08;;;;;;;5.20;4.60;;;;;;;27.19;45.17;99050.75;106847;1266;60310;-39
2023/07/24 09:38:36;;;;;;;8.80;4.60;;;;;;;27.24;44.64;99054.71;106871;1263;73853;-38
2023/07/24 09:41:05;;;;;;;4.80;4.20;;;;;;;27.25;43.87;99050.94;106853;1265;67563;-38
2023/07/24 09:43:35;;;;;;;6.90;4.50;;;;;;;27.27;44.42;99048.50;106807;1265;72692;-38
2023/07/24 09:46:08;;;;;;;6.80;4.20;;;;;;;27.36;44.28;99047.02;106801;1265;60517;-38
2023/07/24 09:48:37;;;;;;;5.70;4.20;;;;;;;27.45;43.62;99040.05;106853;1263;59289;-38
2023/07/24 09:51:08;;;;;;;4.50;4.00;;;;;;;27.56;43.23;99039.59;106976;1263;74228;-38
2023/07/24 09:53:43;;;;;;;6.20;3.90;;;;;;;27.62;43.51;99037.95;106973;1264;67891;-38
2023/07/24 09:56:10;;;;;;;8.80;4.20;;;;;;;27.69;43.22;99030.56;106902;1268;71159;-38
2023/07/24 09:58:39;;;;;;;4.70;4.10;;;;;;;27.75;43.16;99028.94;106807;1261;60516;-38
2023/07/24 10:01:07;;;;;;;5.60;4.90;;;;;;;27.82;43.00;99028.93;106845;1265;60314;-39
2023/07/24 10:03:43;;;;;;;5.70;4.50;;;;;;;27.88;42.69;99026.29;106871;1261;73868;-38
2023/07/24 10:06:11;;;;;;;4.70;4.10;;;;;;;27.91;42.39;99022.02;107008;1265;66947;-38
2023/07/24 10:08:39;;;;;;;5.50;3.90;;;;;;;27.93;41.58;99020.89;106834;1263;72673;-38
2023/07/24 10:11:08;;;;;;;7.10;4.60;;;;;;;27.95;41.43;99017.58;106870;1265;60432;-38
2023/07/24 10:13:36;;;;;;;5.20;4.00;;;;;;;28.01;41.07;99021.24;106822;1265;60271;-39
2023/07/24 10:16:06;;;;;;;6.80;4.30;;;;;;;28.06;40.24;99019.09;106864;1265;72275;-38
2023/07/24 10:18:45;;;;;;;5.50;4.40;;;;;;;28.14;39.90;99014.80;106842;1266;70269;-39
2023/07/24 10:21:13;;;;;;;5.80;4.30;;;;;;;28.21;38.90;99011.45;107236;1257;71236;-39
2023/07/24 10:23:43;;;;;;;5.30;4.10;;;;;;;28.26;40.16;99009.75;107083;1257;60502;-39
2023/07/24 10:26:10;;;;;;;7.50;4.50;;;;;;;28.35;40.03;99012.19;107179;1257;60527;-39
2023/07/24 10:28:39;;;;;;;7.20;3.90;;;;;;;28.43;40.54;99004.07;107249;1258;73849;-39
2023/07/24 10:31:22;;;;;;;5.80;4.50;;;;;;;28.60;39.66;99007.00;107251;1257;66301;-39
2023/07/24 10:34:06;;;;;;;6.30;4.50;;;;;;;28.71;39.07;99002.48;107152;1260;72664;-42
2023/07/24 10:37:02;;;;;;;4.60;3.80;;;;;;;28.79;38.04;99003.98;106896;1263;60544;-39
2023/07/24 10:39:37;;;;;;;7.10;4.50;;;;;;;28.85;37.88;99000.19;107099;1262;60394;-39
2023/07/24 10:42:08;;;;;;;5.80;4.60;;;;;;;28.93;38.36;99005.59;107177;1258;74325;-40
2023/07/24 10:44:49;;;;;;;6.80;4.30;;;;;;;29.05;38.57;98999.31;107202;1262;67584;-39
2023/07/24 10:47:23;;;;;;;5.60;4.50;;;;;;;29.18;37.63;98994.30;107081;1262;70627;-39
2023/07/24 10:49:51;;;;;;;5.80;4.10;;;;;;;29.29;37.17;98986.48;107092;1257;60502;-39
2023/07/24 10:52:26;;;;;;;7.00;4.90;;;;;;;29.44;37.55;98987.23;107058;1257;60116;-38
2023/07/24 10:54:54;;;;;;;7.50;4.40;;;;;;;29.64;37.73;98983.85;106961;1258;73912;-38
2023/07/24 10:57:26;;;;;;;6.20;4.70;;;;;;;29.81;36.69;98983.45;106999;1256;67568;-38
2023/07/24 10:59:54;;;;;;;4.90;4.30;;;;;;;29.86;36.81;98980.17;107049;1260;73279;-39
2023/07/24 11:02:23;;;;;;;4.80;4.20;;;;;;;29.82;36.89;98981.48;107047;1256;60156;-39
2023/07/24 11:04:52;;;;;;;5.70;4.50;;;;;;;29.80;37.25;98985.13;107010;1257;60451;-40
2023/07/24 11:07:21;;;;;;;4.90;4.40;;;;;;;29.84;36.54;98976.14;106928;1264;76471;-39
2023/07/24 11:09:51;;;;;;;6.70;4.20;;;;;;;29.96;37.40;98974.15;107259;1258;68368;-39
2023/07/24 11:12:18;;;;;;;5.60;4.50;;;;;;;30.10;36.49;98972.23;107028;1262;71427;-39
2023/07/24 11:14:50;;;;;;;5.70;4.20;;;;;;;30.21;36.22;98977.11;107096;1262;60306;-39
2023/07/24 11:17:17;;;;;;;6.70;4.70;;;;;;;30.30;36.45;98973.53;107306;1258;60892;-39
2023/07/24 11:19:45;;;;;;;5.40;4.40;;;;;;;30.31;36.18;98968.90;107299;1260;73779;-39
2023/07/24 11:22:13;;;;;;;6.50;4.50;;;;;;;30.30;36.47;98969.46;107213;1257;66289;-39
2023/07/24 11:24:47;;;;;;;5.00;4.20;;;;;;;30.34;37.04;98967.19;107168;1262;71069;-39
2023/07/24 11:27:16;;;;;;;5.00;4.20;;;;;;;30.37;36.70;98960.39;107149;1257;60221;-39
2023/07/24 11:29:48;;;;;;;4.50;4.10;;;;;;;30.40;37.29;98961.41;107199;1258;60499;-39
2023/07/24 11:32:20;;;;;;;4.40;4.00;;;;;;;30.51;36.87;98960.96;107338;1261;73865;-39
2023/07/24 11:34:51;;;;;;;6.20;4.50;;;;;;;30.61;36.37;98958.09;107146;1255;66275;-39